KLM770 EGLC-EHAM
Flight info
| Callsign | KLM770 |
|---|---|
| Flight time | N/A |
| Altitude | 21000 |
| Route | ODUKU M84 CLN P44 RATLO M197 REDFA |
| Aircraft | E75L/M-SDE3GILORVW/S |
Departure
| Time | N/A |
|---|---|
| Airport | London City Airport (EGLC) |
Arrival
| Time | 2026-05-07 23:29 |
|---|---|
| Airport | Amsterdam Airport Schiphol (EHAM) |
| Time | Latitude | Longitude | Altitude | Speed | Heading |
|---|---|---|---|---|---|
| 2026-05-07 22:51 | 51.70626 | 0.68932 | 13333 ft | 328 kts | 57° |
| 2026-05-07 22:51 | 51.71438 | 0.71012 | 13730 ft | 331 kts | 56° |
| 2026-05-07 22:52 | 51.72672 | 0.74184 | 14289 ft | 334 kts | 57° |
| 2026-05-07 22:52 | 51.73804 | 0.77448 | 14845 ft | 337 kts | 62° |
| 2026-05-07 22:52 | 51.75183 | 0.81988 | 15598 ft | 342 kts | 63° |
| 2026-05-07 22:52 | 51.75883 | 0.84339 | 15992 ft | 344 kts | 63° |
| 2026-05-07 22:53 | 51.76909 | 0.87803 | 16565 ft | 347 kts | 63° |
| 2026-05-07 22:53 | 51.77958 | 0.91346 | 17155 ft | 350 kts | 63° |
| 2026-05-07 22:53 | 51.79015 | 0.94923 | 17750 ft | 354 kts | 63° |
| 2026-05-07 22:53 | 51.80081 | 0.98540 | 18366 ft | 357 kts | 63° |
| 2026-05-07 22:54 | 51.81143 | 1.02144 | 18911 ft | 360 kts | 63° |
| 2026-05-07 22:54 | 51.82228 | 1.05829 | 19472 ft | 363 kts | 63° |
| 2026-05-07 22:54 | 51.83325 | 1.09523 | 20033 ft | 366 kts | 62° |
| 2026-05-07 22:54 | 51.84426 | 1.13236 | 20580 ft | 370 kts | 65° |
| 2026-05-07 22:55 | 51.85472 | 1.17067 | 20863 ft | 363 kts | 65° |
| 2026-05-07 22:55 | 51.86487 | 1.20812 | 20942 ft | 370 kts | 65° |
| 2026-05-07 22:55 | 51.87521 | 1.24649 | 20996 ft | 376 kts | 65° |
| 2026-05-07 22:55 | 51.88592 | 1.28632 | 21029 ft | 394 kts | 65° |
| 2026-05-07 22:56 | 51.89704 | 1.32773 | 21035 ft | 410 kts | 65° |
| 2026-05-07 22:56 | 51.90858 | 1.37079 | 21052 ft | 425 kts | 65° |
| 2026-05-07 22:56 | 51.92054 | 1.41553 | 21056 ft | 436 kts | 66° |
| 2026-05-07 22:56 | 51.93265 | 1.46086 | 21038 ft | 439 kts | 66° |
| 2026-05-07 22:57 | 51.94480 | 1.50638 | 21026 ft | 438 kts | 65° |
| 2026-05-07 22:57 | 51.95694 | 1.55194 | 21009 ft | 437 kts | 66° |
| 2026-05-07 22:57 | 51.96892 | 1.59711 | 20999 ft | 436 kts | 66° |
| 2026-05-07 22:57 | 51.98057 | 1.64207 | 21011 ft | 436 kts | 67° |
| 2026-05-07 22:58 | 51.99128 | 1.68808 | 21008 ft | 436 kts | 70° |
| 2026-05-07 22:58 | 51.99954 | 1.73602 | 21005 ft | 437 kts | 74° |
| 2026-05-07 22:58 | 52.00732 | 1.78397 | 21006 ft | 438 kts | 75° |
| 2026-05-07 22:58 | 52.01481 | 1.83197 | 21010 ft | 438 kts | 75° |
| 2026-05-07 22:59 | 52.02218 | 1.87951 | 21005 ft | 438 kts | 75° |
| 2026-05-07 22:59 | 52.02962 | 1.92769 | 21007 ft | 438 kts | 75° |
| 2026-05-07 22:59 | 52.03692 | 1.97512 | 21011 ft | 438 kts | 75° |
| 2026-05-07 22:59 | 52.04433 | 2.02332 | 21007 ft | 438 kts | 75° |
| 2026-05-07 23:00 | 52.05173 | 2.07164 | 21010 ft | 438 kts | 75° |
| 2026-05-07 23:00 | 52.05902 | 2.11938 | 21011 ft | 438 kts | 75° |
| 2026-05-07 23:00 | 52.06638 | 2.16768 | 21007 ft | 438 kts | 75° |
| 2026-05-07 23:00 | 52.07362 | 2.21539 | 21008 ft | 439 kts | 76° |
| 2026-05-07 23:01 | 52.08094 | 2.26380 | 21017 ft | 439 kts | 75° |
| 2026-05-07 23:01 | 52.08827 | 2.31228 | 21007 ft | 439 kts | 75° |
| 2026-05-07 23:01 | 52.09549 | 2.36030 | 21008 ft | 440 kts | 75° |
| 2026-05-07 23:01 | 52.10280 | 2.40902 | 21014 ft | 439 kts | 76° |
| 2026-05-07 23:02 | 52.11155 | 2.45669 | 21001 ft | 439 kts | 68° |
| 2026-05-07 23:02 | 52.12314 | 2.50219 | 21011 ft | 439 kts | 65° |
| 2026-05-07 23:02 | 52.13663 | 2.54698 | 21003 ft | 437 kts | 59° |
| 2026-05-07 23:02 | 52.15162 | 2.58957 | 21016 ft | 439 kts | 59° |
| 2026-05-07 23:03 | 52.16708 | 2.63268 | 21003 ft | 438 kts | 58° |
| 2026-05-07 23:03 | 52.18259 | 2.67563 | 21012 ft | 438 kts | 58° |
| 2026-05-07 23:03 | 52.19789 | 2.71799 | 21001 ft | 438 kts | 58° |
| 2026-05-07 23:03 | 52.21331 | 2.76115 | 20998 ft | 438 kts | 60° |
| 2026-05-07 23:04 | 52.22337 | 2.80754 | 20991 ft | 440 kts | 79° |
| 2026-05-07 23:04 | 52.22374 | 2.85748 | 20991 ft | 441 kts | 99° |
| 2026-05-07 23:04 | 52.21397 | 2.90548 | 21009 ft | 440 kts | 119° |
| 2026-05-07 23:04 | 52.19766 | 2.94777 | 21023 ft | 439 kts | 125° |
| 2026-05-07 23:05 | 52.18063 | 2.98966 | 21020 ft | 439 kts | 124° |
| 2026-05-07 23:05 | 52.16467 | 3.03213 | 21011 ft | 439 kts | 121° |
| 2026-05-07 23:05 | 52.14997 | 3.07604 | 20999 ft | 440 kts | 118° |
| 2026-05-07 23:05 | 52.13630 | 3.12111 | 21004 ft | 439 kts | 116° |
| 2026-05-07 23:06 | 52.12353 | 3.16530 | 21007 ft | 440 kts | 116° |
| 2026-05-07 23:06 | 52.11069 | 3.21095 | 21003 ft | 440 kts | 114° |
| 2026-05-07 23:06 | 52.10001 | 3.25767 | 20998 ft | 441 kts | 110° |
| 2026-05-07 23:06 | 52.08971 | 3.30524 | 21001 ft | 441 kts | 110° |
| 2026-05-07 23:07 | 52.07979 | 3.35247 | 21004 ft | 441 kts | 109° |
| 2026-05-07 23:07 | 52.06982 | 3.39987 | 21000 ft | 441 kts | 110° |
| 2026-05-07 23:07 | 52.05988 | 3.44710 | 21000 ft | 441 kts | 110° |
| 2026-05-07 23:07 | 52.04989 | 3.49442 | 21001 ft | 440 kts | 110° |
| 2026-05-07 23:08 | 52.03987 | 3.54178 | 21008 ft | 441 kts | 110° |
| 2026-05-07 23:08 | 52.03573 | 3.56130 | 21010 ft | 441 kts | 110° |
| 2026-05-07 23:08 | 52.02584 | 3.60785 | 21000 ft | 441 kts | 110° |
| 2026-05-07 23:08 | 52.01593 | 3.65439 | 20995 ft | 440 kts | 110° |
| 2026-05-07 23:09 | 52.00584 | 3.70165 | 21008 ft | 440 kts | 110° |
| 2026-05-07 23:09 | 51.99572 | 3.74895 | 21008 ft | 440 kts | 110° |
| 2026-05-07 23:09 | 51.98572 | 3.79561 | 20999 ft | 440 kts | 110° |
| 2026-05-07 23:09 | 51.97559 | 3.84269 | 21003 ft | 440 kts | 110° |
| 2026-05-07 23:10 | 51.96546 | 3.88973 | 21008 ft | 439 kts | 110° |
| 2026-05-07 23:10 | 51.95535 | 3.93652 | 21001 ft | 439 kts | 110° |
| 2026-05-07 23:10 | 51.94533 | 3.98287 | 20990 ft | 438 kts | 110° |
| 2026-05-07 23:10 | 51.93514 | 4.02983 | 20097 ft | 435 kts | 110° |
| 2026-05-07 23:11 | 51.92703 | 4.06709 | 19389 ft | 430 kts | 110° |
| 2026-05-07 23:11 | 51.91744 | 4.11287 | 18531 ft | 424 kts | 105° |
| 2026-05-07 23:11 | 51.91467 | 4.16003 | 17597 ft | 420 kts | 85° |
| 2026-05-07 23:11 | 51.92168 | 4.20549 | 16708 ft | 413 kts | 65° |
| 2026-05-07 23:12 | 51.93758 | 4.24374 | 15893 ft | 405 kts | 43° |
| 2026-05-07 23:12 | 51.95995 | 4.27052 | 15946 ft | 398 kts | 31° |
| 2026-05-07 23:12 | 51.98332 | 4.29304 | 16019 ft | 389 kts | 28° |
| 2026-05-07 23:12 | 52.00701 | 4.31472 | 16064 ft | 388 kts | 27° |
| 2026-05-07 23:13 | 52.03064 | 4.33593 | 16089 ft | 389 kts | 27° |
| 2026-05-07 23:13 | 52.05329 | 4.35613 | 16105 ft | 389 kts | 27° |
| 2026-05-07 23:13 | 52.07716 | 4.37739 | 16106 ft | 389 kts | 27° |
| 2026-05-07 23:13 | 52.10104 | 4.39887 | 16094 ft | 389 kts | 28° |
| 2026-05-07 23:14 | 52.12474 | 4.42114 | 16106 ft | 389 kts | 29° |
| 2026-05-07 23:14 | 52.14765 | 4.44400 | 16106 ft | 390 kts | 31° |
| 2026-05-07 23:14 | 52.17029 | 4.46810 | 15693 ft | 387 kts | 33° |
| 2026-05-07 23:14 | 52.19228 | 4.49327 | 14917 ft | 384 kts | 35° |
| 2026-05-07 23:15 | 52.21356 | 4.51952 | 14188 ft | 380 kts | 37° |
| 2026-05-07 23:15 | 52.23375 | 4.54742 | 13400 ft | 377 kts | 45° |
| 2026-05-07 23:15 | 52.24765 | 4.58263 | 12782 ft | 371 kts | 69° |
| 2026-05-07 23:15 | 52.25414 | 4.62220 | 12611 ft | 352 kts | 78° |
| 2026-05-07 23:16 | 52.25874 | 4.66065 | 12440 ft | 336 kts | 79° |
| 2026-05-07 23:16 | 52.26300 | 4.69711 | 12264 ft | 322 kts | 78° |
| 2026-05-07 23:16 | 52.26724 | 4.73177 | 12078 ft | 310 kts | 78° |
| 2026-05-07 23:16 | 52.27171 | 4.76653 | 11889 ft | 299 kts | 77° |
| 2026-05-07 23:17 | 52.27629 | 4.79886 | 11647 ft | 291 kts | 73° |
| 2026-05-07 23:17 | 52.28223 | 4.83018 | 11290 ft | 289 kts | 71° |
| 2026-05-07 23:17 | 52.28854 | 4.86181 | 10928 ft | 287 kts | 71° |
| 2026-05-07 23:17 | 52.29454 | 4.89161 | 10575 ft | 284 kts | 71° |
| 2026-05-07 23:18 | 52.30115 | 4.92436 | 9964 ft | 281 kts | 71° |
| 2026-05-07 23:18 | 52.30722 | 4.95461 | 9390 ft | 277 kts | 71° |
| 2026-05-07 23:18 | 52.31311 | 4.98400 | 8838 ft | 273 kts | 71° |
| 2026-05-07 23:18 | 52.31910 | 5.01391 | 8301 ft | 269 kts | 71° |
| 2026-05-07 23:19 | 52.32490 | 5.04285 | 7766 ft | 265 kts | 71° |
| 2026-05-07 23:19 | 52.33190 | 5.06988 | 7214 ft | 260 kts | 53° |
| 2026-05-07 23:19 | 52.34482 | 5.08977 | 6731 ft | 249 kts | 36° |
| 2026-05-07 23:19 | 52.35862 | 5.10510 | 6465 ft | 228 kts | 32° |
| 2026-05-07 23:20 | 52.37170 | 5.11788 | 6162 ft | 214 kts | 27° |
| 2026-05-07 23:20 | 52.38466 | 5.12804 | 5830 ft | 203 kts | 25° |
| 2026-05-07 23:20 | 52.39733 | 5.13730 | 5636 ft | 195 kts | 24° |
| 2026-05-07 23:20 | 52.40949 | 5.14607 | 5534 ft | 188 kts | 24° |
| 2026-05-07 23:21 | 52.42139 | 5.15465 | 5340 ft | 187 kts | 25° |
| 2026-05-07 23:21 | 52.43346 | 5.16269 | 5120 ft | 186 kts | 11° |
| 2026-05-07 23:21 | 52.44617 | 5.15936 | 4771 ft | 190 kts | 332° |
| 2026-05-07 23:21 | 52.45689 | 5.14697 | 4430 ft | 191 kts | 323° |
| 2026-05-07 23:22 | 52.46700 | 5.13271 | 4094 ft | 191 kts | 320° |
| 2026-05-07 23:22 | 52.47627 | 5.11705 | 3741 ft | 193 kts | 301° |
| 2026-05-07 23:22 | 52.47901 | 5.09573 | 3375 ft | 197 kts | 266° |
| 2026-05-07 23:22 | 52.47662 | 5.07343 | 3233 ft | 210 kts | 256° |
| 2026-05-07 23:23 | 52.47246 | 5.05013 | 3379 ft | 204 kts | 248° |
| 2026-05-07 23:23 | 52.46636 | 5.02979 | 3285 ft | 193 kts | 242° |
| 2026-05-07 23:23 | 52.45890 | 5.01238 | 3164 ft | 182 kts | 224° |
| 2026-05-07 23:23 | 52.44961 | 4.99877 | 3118 ft | 181 kts | 219° |
| 2026-05-07 23:24 | 52.44017 | 4.98469 | 3104 ft | 183 kts | 221° |
| 2026-05-07 23:24 | 52.43062 | 4.97062 | 2981 ft | 188 kts | 220° |
| 2026-05-07 23:24 | 52.42079 | 4.95657 | 2728 ft | 181 kts | 220° |
| 2026-05-07 23:24 | 52.41190 | 4.94372 | 2552 ft | 164 kts | 220° |
| 2026-05-07 23:25 | 52.40362 | 4.93177 | 2351 ft | 150 kts | 220° |
| 2026-05-07 23:25 | 52.39621 | 4.92113 | 2180 ft | 137 kts | 220° |
| 2026-05-07 23:25 | 52.38930 | 4.91114 | 1970 ft | 128 kts | 219° |
| 2026-05-07 23:25 | 52.38268 | 4.90163 | 1799 ft | 127 kts | 220° |
| 2026-05-07 23:26 | 52.37596 | 4.89196 | 1677 ft | 130 kts | 220° |
| 2026-05-07 23:26 | 52.36914 | 4.88216 | 1533 ft | 132 kts | 220° |
| 2026-05-07 23:26 | 52.36231 | 4.87233 | 1356 ft | 129 kts | 220° |
| 2026-05-07 23:26 | 52.35560 | 4.86270 | 1187 ft | 129 kts | 221° |
| 2026-05-07 23:27 | 52.34218 | 4.84359 | 939 ft | 127 kts | 222° |
| 2026-05-07 23:27 | 52.33769 | 4.83700 | 740 ft | 131 kts | 219° |
| 2026-05-07 23:27 | 52.33067 | 4.82724 | 503 ft | 124 kts | 220° |
| 2026-05-07 23:28 | 52.32445 | 4.81803 | 353 ft | 122 kts | 218° |
| 2026-05-07 23:28 | 52.31674 | 4.80686 | 116 ft | 123 kts | 216° |
| 2026-05-07 23:28 | 52.30997 | 4.79738 | -7 ft | 109 kts | 218° |
| 2026-05-07 23:28 | 52.30502 | 4.79031 | -7 ft | 79 kts | 219° |
| 2026-05-07 23:29 | 52.30190 | 4.78567 | -5 ft | 25 kts | 221° |
| 2026-05-07 23:29 | 52.30117 | 4.78496 | -5 ft | 11 kts | 163° |
| 2026-05-07 23:29 | 52.30066 | 4.78579 | -3 ft | 11 kts | 131° |
| 2026-05-07 23:29 | 52.30015 | 4.78676 | -3 ft | 12 kts | 136° |
| 2026-05-07 23:30 | 52.29943 | 4.78683 | -3 ft | 12 kts | 223° |
| 2026-05-07 23:30 | 52.29874 | 4.78585 | -3 ft | 14 kts | 223° |
| 2026-05-07 23:30 | 52.29825 | 4.78510 | -3 ft | 15 kts | 223° |
| 2026-05-07 23:30 | 52.29760 | 4.78441 | -3 ft | 2 kts | 156° |
| 2026-05-07 23:31 | 52.29744 | 4.78470 | -3 ft | 4 kts | 123° |
| 2026-05-07 23:31 | 52.29760 | 4.78518 | -3 ft | 6 kts | 39° |
| 2026-05-07 23:31 | 52.29781 | 4.78565 | -3 ft | 7 kts | 76° |
| 2026-05-07 23:31 | 52.29804 | 4.78631 | -3 ft | 3 kts | 38° |
| 2026-05-07 23:32 | 52.29813 | 4.78631 | -3 ft | 3 kts | 354° |
| 2026-05-07 23:32 | 52.29821 | 4.78629 | -3 ft | 0 kts | 348° |